sensor_id;sensor_type;location;lat;lon;timestamp;temperature;humidity
20891;DHT22;10605;52.968;8.844;2023-08-20T00:00:39;17.70;99.90
20891;DHT22;10605;52.968;8.844;2023-08-20T00:03:11;17.60;99.90
20891;DHT22;10605;52.968;8.844;2023-08-20T00:05:38;17.60;99.90
20891;DHT22;10605;52.968;8.844;2023-08-20T00:08:04;17.50;99.90
20891;DHT22;10605;52.968;8.844;2023-08-20T00:10:30;17.50;99.90
20891;DHT22;10605;52.968;8.844;2023-08-20T00:12:57;17.50;99.90
20891;DHT22;10605;52.968;8.844;2023-08-20T00:15:22;17.50;99.90
20891;DHT22;10605;52.968;8.844;2023-08-20T00:17:53;17.40;99.90
20891;DHT22;10605;52.968;8.844;2023-08-20T00:20:19;17.40;99.90
20891;DHT22;10605;52.968;8.844;2023-08-20T00:22:45;17.40;99.90
20891;DHT22;10605;52.968;8.844;2023-08-20T00:25:13;17.40;99.90
20891;DHT22;10605;52.968;8.844;2023-08-20T00:27:39;17.30;99.90
20891;DHT22;10605;52.968;8.844;2023-08-20T00:30:06;17.20;99.90
20891;DHT22;10605;52.968;8.844;2023-08-20T00:32:32;17.20;99.90
20891;DHT22;10605;52.968;8.844;2023-08-20T00:34:58;17.10;99.90
20891;DHT22;10605;52.968;8.844;2023-08-20T00:37:23;17.00;99.90
20891;DHT22;10605;52.968;8.844;2023-08-20T00:39:49;16.90;99.90
20891;DHT22;10605;52.968;8.844;2023-08-20T00:42:15;16.90;99.90
20891;DHT22;10605;52.968;8.844;2023-08-20T00:44:41;16.90;99.90
20891;DHT22;10605;52.968;8.844;2023-08-20T00:47:10;16.90;99.90
20891;DHT22;10605;52.968;8.844;2023-08-20T00:49:36;16.80;99.90
20891;DHT22;10605;52.968;8.844;2023-08-20T00:52:03;16.90;99.90
20891;DHT22;10605;52.968;8.844;2023-08-20T00:54:29;16.70;99.90
20891;DHT22;10605;52.968;8.844;2023-08-20T00:56:57;16.70;99.90
20891;DHT22;10605;52.968;8.844;2023-08-20T00:59:25;16.60;99.90
20891;DHT22;10605;52.968;8.844;2023-08-20T01:01:51;16.50;99.90
20891;DHT22;10605;52.968;8.844;2023-08-20T01:04:17;16.50;99.90
20891;DHT22;10605;52.968;8.844;2023-08-20T01:12:23;16.10;99.90
20891;DHT22;10605;52.968;8.844;2023-08-20T01:14:49;16.00;99.90
20891;DHT22;10605;52.968;8.844;2023-08-20T01:17:15;16.00;99.90
20891;DHT22;10605;52.968;8.844;2023-08-20T01:19:41;16.00;99.90
20891;DHT22;10605;52.968;8.844;2023-08-20T01:30:41;16.00;99.90
20891;DHT22;10605;52.968;8.844;2023-08-20T01:33:08;15.90;99.90
20891;DHT22;10605;52.968;8.844;2023-08-20T01:35:33;15.90;99.90
20891;DHT22;10605;52.968;8.844;2023-08-20T01:37:59;15.80;99.90
20891;DHT22;10605;52.968;8.844;2023-08-20T01:40:25;15.80;99.90
20891;DHT22;10605;52.968;8.844;2023-08-20T01:42:50;15.70;99.90
20891;DHT22;10605;52.968;8.844;2023-08-20T01:45:16;15.70;99.90
20891;DHT22;10605;52.968;8.844;2023-08-20T01:47:43;15.70;99.90
20891;DHT22;10605;52.968;8.844;2023-08-20T01:50:09;15.60;99.90
20891;DHT22;10605;52.968;8.844;2023-08-20T01:52:35;15.60;99.90
20891;DHT22;10605;52.968;8.844;2023-08-20T01:55:01;15.50;99.90
20891;DHT22;10605;52.968;8.844;2023-08-20T01:57:27;15.50;99.90
20891;DHT22;10605;52.968;8.844;2023-08-20T01:59:52;15.50;99.90
20891;DHT22;10605;52.968;8.844;2023-08-20T02:02:18;15.50;99.90
20891;DHT22;10605;52.968;8.844;2023-08-20T02:04:44;15.40;99.90
20891;DHT22;10605;52.968;8.844;2023-08-20T02:07:09;15.40;99.90
20891;DHT22;10605;52.968;8.844;2023-08-20T02:09:35;15.40;99.90
20891;DHT22;10605;52.968;8.844;2023-08-20T02:12:01;15.40;99.90
20891;DHT22;10605;52.968;8.844;2023-08-20T02:14:26;15.50;99.90
20891;DHT22;10605;52.968;8.844;2023-08-20T02:16:54;15.50;99.90
20891;DHT22;10605;52.968;8.844;2023-08-20T02:19:20;15.50;99.90
20891;DHT22;10605;52.968;8.844;2023-08-20T02:21:45;15.60;99.90
20891;DHT22;10605;52.968;8.844;2023-08-20T02:24:11;15.50;99.90
20891;DHT22;10605;52.968;8.844;2023-08-20T02:26:36;15.40;99.90
20891;DHT22;10605;52.968;8.844;2023-08-20T02:29:02;15.40;99.90
20891;DHT22;10605;52.968;8.844;2023-08-20T02:31:28;15.30;99.90
20891;DHT22;10605;52.968;8.844;2023-08-20T02:33:54;15.30;99.90
20891;DHT22;10605;52.968;8.844;2023-08-20T02:36:19;15.30;99.90
20891;DHT22;10605;52.968;8.844;2023-08-20T02:38:46;15.20;99.90
20891;DHT22;10605;52.968;8.844;2023-08-20T02:41:11;15.10;99.90
20891;DHT22;10605;52.968;8.844;2023-08-20T02:43:37;15.10;99.90
20891;DHT22;10605;52.968;8.844;2023-08-20T02:46:03;15.10;99.90
20891;DHT22;10605;52.968;8.844;2023-08-20T02:48:29;15.00;99.90
20891;DHT22;10605;52.968;8.844;2023-08-20T02:50:55;15.00;99.90
20891;DHT22;10605;52.968;8.844;2023-08-20T02:53:22;14.90;99.90
20891;DHT22;10605;52.968;8.844;2023-08-20T02:55:48;14.90;99.90
20891;DHT22;10605;52.968;8.844;2023-08-20T02:58:14;14.90;99.90
20891;DHT22;10605;52.968;8.844;2023-08-20T03:00:40;14.90;99.90
20891;DHT22;10605;52.968;8.844;2023-08-20T03:03:06;14.90;99.90
20891;DHT22;10605;52.968;8.844;2023-08-20T03:05:34;14.90;99.90
20891;DHT22;10605;52.968;8.844;2023-08-20T03:08:00;14.80;99.90
20891;DHT22;10605;52.968;8.844;2023-08-20T03:10:27;14.70;99.90
20891;DHT22;10605;52.968;8.844;2023-08-20T03:12:53;14.80;99.90
20891;DHT22;10605;52.968;8.844;2023-08-20T03:15:19;14.80;99.90
20891;DHT22;10605;52.968;8.844;2023-08-20T03:17:44;14.80;99.90
20891;DHT22;10605;52.968;8.844;2023-08-20T03:20:10;14.70;99.90
20891;DHT22;10605;52.968;8.844;2023-08-20T03:22:37;14.80;99.90
20891;DHT22;10605;52.968;8.844;2023-08-20T03:25:04;14.80;99.90
20891;DHT22;10605;52.968;8.844;2023-08-20T03:27:30;14.80;99.90
20891;DHT22;10605;52.968;8.844;2023-08-20T03:29:56;14.80;99.90
20891;DHT22;10605;52.968;8.844;2023-08-20T03:32:22;14.80;99.90
20891;DHT22;10605;52.968;8.844;2023-08-20T03:34:47;14.80;99.90
20891;DHT22;10605;52.968;8.844;2023-08-20T03:37:13;14.80;99.90
20891;DHT22;10605;52.968;8.844;2023-08-20T03:39:39;14.80;99.90
20891;DHT22;10605;52.968;8.844;2023-08-20T03:42:04;14.90;99.90
20891;DHT22;10605;52.968;8.844;2023-08-20T03:44:31;14.80;99.90
20891;DHT22;10605;52.968;8.844;2023-08-20T03:46:57;14.90;99.90
20891;DHT22;10605;52.968;8.844;2023-08-20T03:49:23;14.90;99.90
20891;DHT22;10605;52.968;8.844;2023-08-20T03:51:48;14.90;99.90
20891;DHT22;10605;52.968;8.844;2023-08-20T03:54:14;14.90;99.90
20891;DHT22;10605;52.968;8.844;2023-08-20T03:56:40;14.90;99.90
20891;DHT22;10605;52.968;8.844;2023-08-20T03:59:06;14.80;99.90
20891;DHT22;10605;52.968;8.844;2023-08-20T04:01:32;14.90;99.90
20891;DHT22;10605;52.968;8.844;2023-08-20T04:03:57;14.90;99.90
20891;DHT22;10605;52.968;8.844;2023-08-20T04:06:23;14.90;99.90
20891;DHT22;10605;52.968;8.844;2023-08-20T04:08:49;14.90;99.90
20891;DHT22;10605;52.968;8.844;2023-08-20T04:11:15;14.90;99.90
20891;DHT22;10605;52.968;8.844;2023-08-20T04:13:41;14.90;99.90
20891;DHT22;10605;52.968;8.844;2023-08-20T04:16:09;14.90;99.90
20891;DHT22;10605;52.968;8.844;2023-08-20T04:18:35;14.90;99.90
20891;DHT22;10605;52.968;8.844;2023-08-20T04:21:00;14.90;99.90
20891;DHT22;10605;52.968;8.844;2023-08-20T04:23:26;14.80;99.90
20891;DHT22;10605;52.968;8.844;2023-08-20T04:25:52;14.80;99.90
20891;DHT22;10605;52.968;8.844;2023-08-20T04:28:17;14.90;99.90
20891;DHT22;10605;52.968;8.844;2023-08-20T04:30:43;14.90;99.90
20891;DHT22;10605;52.968;8.844;2023-08-20T04:33:09;14.90;99.90
20891;DHT22;10605;52.968;8.844;2023-08-20T04:35:35;14.90;99.90
20891;DHT22;10605;52.968;8.844;2023-08-20T04:38:01;15.00;99.90
20891;DHT22;10605;52.968;8.844;2023-08-20T04:40:27;15.00;99.90
20891;DHT22;10605;52.968;8.844;2023-08-20T04:42:53;15.10;99.90
20891;DHT22;10605;52.968;8.844;2023-08-20T04:45:19;15.10;99.90
20891;DHT22;10605;52.968;8.844;2023-08-20T04:47:45;15.10;99.90
20891;DHT22;10605;52.968;8.844;2023-08-20T04:50:11;15.10;99.90
20891;DHT22;10605;52.968;8.844;2023-08-20T04:52:37;15.10;99.90
20891;DHT22;10605;52.968;8.844;2023-08-20T04:55:03;15.00;99.90
20891;DHT22;10605;52.968;8.844;2023-08-20T04:57:29;15.10;99.90
20891;DHT22;10605;52.968;8.844;2023-08-20T04:59:55;15.30;99.90
20891;DHT22;10605;52.968;8.844;2023-08-20T05:02:20;15.40;99.90
20891;DHT22;10605;52.968;8.844;2023-08-20T05:04:46;15.60;99.90
20891;DHT22;10605;52.968;8.844;2023-08-20T05:07:11;15.90;99.90
20891;DHT22;10605;52.968;8.844;2023-08-20T05:09:38;16.20;99.90
20891;DHT22;10605;52.968;8.844;2023-08-20T05:12:04;16.50;99.90
20891;DHT22;10605;52.968;8.844;2023-08-20T05:14:30;16.80;99.90
20891;DHT22;10605;52.968;8.844;2023-08-20T05:16:56;17.10;99.90
20891;DHT22;10605;52.968;8.844;2023-08-20T05:19:22;17.40;99.90
20891;DHT22;10605;52.968;8.844;2023-08-20T05:21:48;17.70;99.90
20891;DHT22;10605;52.968;8.844;2023-08-20T05:24:13;18.10;99.90
20891;DHT22;10605;52.968;8.844;2023-08-20T05:26:39;18.20;99.90
20891;DHT22;10605;52.968;8.844;2023-08-20T05:29:05;18.30;99.90
20891;DHT22;10605;52.968;8.844;2023-08-20T05:31:30;18.70;99.90
20891;DHT22;10605;52.968;8.844;2023-08-20T05:33:56;19.00;99.90
20891;DHT22;10605;52.968;8.844;2023-08-20T05:36:23;19.30;99.90
20891;DHT22;10605;52.968;8.844;2023-08-20T05:38:49;19.60;99.90
20891;DHT22;10605;52.968;8.844;2023-08-20T05:41:14;19.90;99.90
20891;DHT22;10605;52.968;8.844;2023-08-20T05:43:40;20.30;99.90
20891;DHT22;10605;52.968;8.844;2023-08-20T05:46:06;20.60;99.90
20891;DHT22;10605;52.968;8.844;2023-08-20T05:48:32;20.80;99.90
20891;DHT22;10605;52.968;8.844;2023-08-20T05:50:57;20.90;99.90
20891;DHT22;10605;52.968;8.844;2023-08-20T05:53:23;21.20;99.90
20891;DHT22;10605;52.968;8.844;2023-08-20T05:55:49;21.40;99.90
20891;DHT22;10605;52.968;8.844;2023-08-20T05:58:14;21.80;99.90
20891;DHT22;10605;52.968;8.844;2023-08-20T06:00:40;21.90;99.90
20891;DHT22;10605;52.968;8.844;2023-08-20T06:03:13;22.10;99.90
20891;DHT22;10605;52.968;8.844;2023-08-20T06:06:18;22.30;99.90
20891;DHT22;10605;52.968;8.844;2023-08-20T06:26:58;24.40;99.90
20891;DHT22;10605;52.968;8.844;2023-08-20T06:34:15;25.10;99.90
20891;DHT22;10605;52.968;8.844;2023-08-20T06:38:07;25.40;99.90
20891;DHT22;10605;52.968;8.844;2023-08-20T07:38:30;29.70;99.90
20891;DHT22;10605;52.968;8.844;2023-08-20T07:49:21;30.30;99.90
20891;DHT22;10605;52.968;8.844;2023-08-20T15:23:43;29.10;91.50
20891;DHT22;10605;52.968;8.844;2023-08-20T15:26:08;28.70;92.70
20891;DHT22;10605;52.968;8.844;2023-08-20T15:28:54;28.80;92.50
20891;DHT22;10605;52.968;8.844;2023-08-20T15:31:20;28.90;91.30
20891;DHT22;10605;52.968;8.844;2023-08-20T15:33:48;29.00;91.40
20891;DHT22;10605;52.968;8.844;2023-08-20T15:36:34;28.80;90.50
20891;DHT22;10605;52.968;8.844;2023-08-20T15:43:51;29.00;90.90
20891;DHT22;10605;52.968;8.844;2023-08-20T15:50:26;28.80;90.80
20891;DHT22;10605;52.968;8.844;2023-08-20T15:53:35;28.80;91.50
20891;DHT22;10605;52.968;8.844;2023-08-20T15:56:28;28.70;90.40
20891;DHT22;10605;52.968;8.844;2023-08-20T15:59:18;28.80;91.70
20891;DHT22;10605;52.968;8.844;2023-08-20T16:01:46;28.50;90.80
20891;DHT22;10605;52.968;8.844;2023-08-20T16:04:36;28.10;92.00
20891;DHT22;10605;52.968;8.844;2023-08-20T16:07:02;27.70;94.10
20891;DHT22;10605;52.968;8.844;2023-08-20T16:09:28;27.40;94.10
20891;DHT22;10605;52.968;8.844;2023-08-20T16:11:54;27.30;94.50
20891;DHT22;10605;52.968;8.844;2023-08-20T16:14:19;27.20;95.50
20891;DHT22;10605;52.968;8.844;2023-08-20T16:16:45;27.20;95.10
20891;DHT22;10605;52.968;8.844;2023-08-20T16:19:11;27.20;95.30
20891;DHT22;10605;52.968;8.844;2023-08-20T16:21:37;27.10;95.00
20891;DHT22;10605;52.968;8.844;2023-08-20T16:24:03;27.10;95.20
20891;DHT22;10605;52.968;8.844;2023-08-20T16:26:30;27.00;95.00
20891;DHT22;10605;52.968;8.844;2023-08-20T16:28:56;27.00;95.20
20891;DHT22;10605;52.968;8.844;2023-08-20T16:31:25;27.00;95.10
20891;DHT22;10605;52.968;8.844;2023-08-20T16:33:51;27.00;94.40
20891;DHT22;10605;52.968;8.844;2023-08-20T16:36:17;27.00;95.20
20891;DHT22;10605;52.968;8.844;2023-08-20T16:38:42;27.00;95.10
20891;DHT22;10605;52.968;8.844;2023-08-20T16:41:08;26.80;94.70
20891;DHT22;10605;52.968;8.844;2023-08-20T16:43:34;26.80;94.40
20891;DHT22;10605;52.968;8.844;2023-08-20T16:46:00;26.70;94.50
20891;DHT22;10605;52.968;8.844;2023-08-20T16:48:27;26.60;95.40
20891;DHT22;10605;52.968;8.844;2023-08-20T16:50:57;26.50;95.70
20891;DHT22;10605;52.968;8.844;2023-08-20T16:53:23;26.30;96.20
20891;DHT22;10605;52.968;8.844;2023-08-20T16:55:53;26.20;97.30
20891;DHT22;10605;52.968;8.844;2023-08-20T16:58:22;26.20;95.90
20891;DHT22;10605;52.968;8.844;2023-08-20T17:00:50;26.10;95.20
20891;DHT22;10605;52.968;8.844;2023-08-20T17:03:16;26.10;95.80
20891;DHT22;10605;52.968;8.844;2023-08-20T17:05:42;26.10;96.40
20891;DHT22;10605;52.968;8.844;2023-08-20T17:08:15;26.00;96.30
20891;DHT22;10605;52.968;8.844;2023-08-20T17:10:49;25.90;95.30
20891;DHT22;10605;52.968;8.844;2023-08-20T17:13:15;25.90;95.60
20891;DHT22;10605;52.968;8.844;2023-08-20T17:15:50;25.80;95.10
20891;DHT22;10605;52.968;8.844;2023-08-20T17:18:38;25.80;94.90
20891;DHT22;10605;52.968;8.844;2023-08-20T17:21:22;25.80;94.20
20891;DHT22;10605;52.968;8.844;2023-08-20T17:23:59;25.90;94.80
20891;DHT22;10605;52.968;8.844;2023-08-20T17:29:55;25.80;95.00
20891;DHT22;10605;52.968;8.844;2023-08-20T17:32:23;25.70;93.90
20891;DHT22;10605;52.968;8.844;2023-08-20T17:38:53;25.50;95.40
20891;DHT22;10605;52.968;8.844;2023-08-20T17:41:24;25.30;95.80
20891;DHT22;10605;52.968;8.844;2023-08-20T17:43:57;25.20;96.20
20891;DHT22;10605;52.968;8.844;2023-08-20T17:46:26;25.00;96.90
20891;DHT22;10605;52.968;8.844;2023-08-20T17:49:18;25.00;97.50
20891;DHT22;10605;52.968;8.844;2023-08-20T17:51:44;24.80;98.50
20891;DHT22;10605;52.968;8.844;2023-08-20T17:54:13;24.70;98.80
20891;DHT22;10605;52.968;8.844;2023-08-20T17:56:39;24.60;99.60
20891;DHT22;10605;52.968;8.844;2023-08-20T17:59:11;24.60;99.90
20891;DHT22;10605;52.968;8.844;2023-08-20T18:01:37;24.50;99.90
20891;DHT22;10605;52.968;8.844;2023-08-20T18:04:05;24.40;99.90
20891;DHT22;10605;52.968;8.844;2023-08-20T18:06:37;24.30;99.90
20891;DHT22;10605;52.968;8.844;2023-08-20T18:09:09;24.30;99.90
20891;DHT22;10605;52.968;8.844;2023-08-20T18:11:47;24.10;99.90
20891;DHT22;10605;52.968;8.844;2023-08-20T18:14:21;24.00;99.90
20891;DHT22;10605;52.968;8.844;2023-08-20T18:17:07;23.80;99.90
20891;DHT22;10605;52.968;8.844;2023-08-20T18:19:33;23.70;99.90
20891;DHT22;10605;52.968;8.844;2023-08-20T18:22:09;23.60;99.90
20891;DHT22;10605;52.968;8.844;2023-08-20T18:25:02;23.50;99.90
20891;DHT22;10605;52.968;8.844;2023-08-20T18:27:50;23.40;99.90
20891;DHT22;10605;52.968;8.844;2023-08-20T18:30:18;23.30;99.90
20891;DHT22;10605;52.968;8.844;2023-08-20T18:32:43;23.30;99.90
20891;DHT22;10605;52.968;8.844;2023-08-20T18:35:15;23.20;99.90
20891;DHT22;10605;52.968;8.844;2023-08-20T18:41:34;22.90;99.90
20891;DHT22;10605;52.968;8.844;2023-08-20T18:44:00;22.60;99.90
20891;DHT22;10605;52.968;8.844;2023-08-20T18:53:13;22.30;99.90
20891;DHT22;10605;52.968;8.844;2023-08-20T18:55:47;22.10;99.90
20891;DHT22;10605;52.968;8.844;2023-08-20T18:58:28;22.10;99.90
20891;DHT22;10605;52.968;8.844;2023-08-20T19:01:36;22.10;99.90
20891;DHT22;10605;52.968;8.844;2023-08-20T19:04:04;22.00;99.90
20891;DHT22;10605;52.968;8.844;2023-08-20T19:06:29;21.90;99.90
20891;DHT22;10605;52.968;8.844;2023-08-20T19:08:58;21.80;99.90
20891;DHT22;10605;52.968;8.844;2023-08-20T19:11:37;21.70;99.90
20891;DHT22;10605;52.968;8.844;2023-08-20T19:14:08;21.60;99.90
20891;DHT22;10605;52.968;8.844;2023-08-20T19:16:34;21.60;99.90
20891;DHT22;10605;52.968;8.844;2023-08-20T19:19:02;21.50;99.90
20891;DHT22;10605;52.968;8.844;2023-08-20T19:21:39;21.40;99.90
20891;DHT22;10605;52.968;8.844;2023-08-20T19:24:24;21.40;99.90
20891;DHT22;10605;52.968;8.844;2023-08-20T19:26:50;21.30;99.90
20891;DHT22;10605;52.968;8.844;2023-08-20T19:29:16;21.20;99.90
20891;DHT22;10605;52.968;8.844;2023-08-20T19:31:45;21.20;99.90
20891;DHT22;10605;52.968;8.844;2023-08-20T19:34:13;21.10;99.90
20891;DHT22;10605;52.968;8.844;2023-08-20T19:36:39;21.00;99.90
20891;DHT22;10605;52.968;8.844;2023-08-20T19:39:06;21.00;99.90
20891;DHT22;10605;52.968;8.844;2023-08-20T19:41:32;21.00;99.90
20891;DHT22;10605;52.968;8.844;2023-08-20T19:44:01;20.90;99.90
20891;DHT22;10605;52.968;8.844;2023-08-20T19:46:32;20.80;99.90
20891;DHT22;10605;52.968;8.844;2023-08-20T19:49:22;20.80;99.90
20891;DHT22;10605;52.968;8.844;2023-08-20T19:51:59;20.70;99.90
20891;DHT22;10605;52.968;8.844;2023-08-20T19:54:26;20.70;99.90
20891;DHT22;10605;52.968;8.844;2023-08-20T19:56:55;20.60;99.90
20891;DHT22;10605;52.968;8.844;2023-08-20T19:59:23;20.60;99.90
20891;DHT22;10605;52.968;8.844;2023-08-20T20:01:51;20.60;99.90
20891;DHT22;10605;52.968;8.844;2023-08-20T20:04:17;20.50;99.90
20891;DHT22;10605;52.968;8.844;2023-08-20T20:06:44;20.50;99.90
20891;DHT22;10605;52.968;8.844;2023-08-20T20:09:23;20.40;99.90
20891;DHT22;10605;52.968;8.844;2023-08-20T20:11:51;20.30;99.90
20891;DHT22;10605;52.968;8.844;2023-08-20T20:14:21;20.30;99.90
20891;DHT22;10605;52.968;8.844;2023-08-20T20:16:47;20.20;99.90
20891;DHT22;10605;52.968;8.844;2023-08-20T20:19:22;20.10;99.90
20891;DHT22;10605;52.968;8.844;2023-08-20T20:21:50;20.00;99.90
20891;DHT22;10605;52.968;8.844;2023-08-20T20:24:37;20.00;99.90
20891;DHT22;10605;52.968;8.844;2023-08-20T20:27:06;20.00;99.90
20891;DHT22;10605;52.968;8.844;2023-08-20T20:29:32;19.90;99.90
20891;DHT22;10605;52.968;8.844;2023-08-20T20:32:01;19.80;99.90
20891;DHT22;10605;52.968;8.844;2023-08-20T20:34:30;19.80;99.90
20891;DHT22;10605;52.968;8.844;2023-08-20T20:37:08;19.60;99.90
20891;DHT22;10605;52.968;8.844;2023-08-20T20:39:34;19.70;99.90
20891;DHT22;10605;52.968;8.844;2023-08-20T20:42:00;19.70;99.90
20891;DHT22;10605;52.968;8.844;2023-08-20T20:44:26;19.50;99.90
20891;DHT22;10605;52.968;8.844;2023-08-20T20:46:52;19.40;99.90
20891;DHT22;10605;52.968;8.844;2023-08-20T20:49:18;19.30;99.90
20891;DHT22;10605;52.968;8.844;2023-08-20T20:51:43;19.30;99.90
20891;DHT22;10605;52.968;8.844;2023-08-20T20:54:09;19.30;99.90
20891;DHT22;10605;52.968;8.844;2023-08-20T20:56:35;19.10;99.90
20891;DHT22;10605;52.968;8.844;2023-08-20T20:59:01;19.10;99.90
20891;DHT22;10605;52.968;8.844;2023-08-20T21:01:27;19.00;99.90
20891;DHT22;10605;52.968;8.844;2023-08-20T21:03:54;18.90;99.90
20891;DHT22;10605;52.968;8.844;2023-08-20T21:06:19;18.70;99.90
20891;DHT22;10605;52.968;8.844;2023-08-20T21:08:46;18.70;99.90
20891;DHT22;10605;52.968;8.844;2023-08-20T21:11:11;18.70;99.90
20891;DHT22;10605;52.968;8.844;2023-08-20T21:13:37;18.60;99.90
20891;DHT22;10605;52.968;8.844;2023-08-20T21:16:03;18.50;99.90
20891;DHT22;10605;52.968;8.844;2023-08-20T21:18:29;18.40;99.90
20891;DHT22;10605;52.968;8.844;2023-08-20T21:20:54;18.30;99.90
20891;DHT22;10605;52.968;8.844;2023-08-20T21:23:20;18.20;99.90
20891;DHT22;10605;52.968;8.844;2023-08-20T21:25:46;18.10;99.90
20891;DHT22;10605;52.968;8.844;2023-08-20T21:28:12;18.10;99.90
20891;DHT22;10605;52.968;8.844;2023-08-20T21:30:38;17.90;99.90
20891;DHT22;10605;52.968;8.844;2023-08-20T21:33:03;17.80;99.90
20891;DHT22;10605;52.968;8.844;2023-08-20T21:35:29;17.80;99.90
20891;DHT22;10605;52.968;8.844;2023-08-20T21:37:55;17.80;99.90
20891;DHT22;10605;52.968;8.844;2023-08-20T21:40:21;17.80;99.90
20891;DHT22;10605;52.968;8.844;2023-08-20T21:42:47;17.70;99.90
20891;DHT22;10605;52.968;8.844;2023-08-20T21:45:12;17.70;99.90
20891;DHT22;10605;52.968;8.844;2023-08-20T21:47:39;17.70;99.90
20891;DHT22;10605;52.968;8.844;2023-08-20T21:50:14;17.60;99.90
20891;DHT22;10605;52.968;8.844;2023-08-20T21:52:43;17.60;99.90
20891;DHT22;10605;52.968;8.844;2023-08-20T21:55:11;17.60;99.90
20891;DHT22;10605;52.968;8.844;2023-08-20T21:57:37;17.60;99.90
20891;DHT22;10605;52.968;8.844;2023-08-20T22:00:04;17.60;99.90
20891;DHT22;10605;52.968;8.844;2023-08-20T22:02:32;17.60;99.90
20891;DHT22;10605;52.968;8.844;2023-08-20T22:05:17;17.60;99.90
20891;DHT22;10605;52.968;8.844;2023-08-20T22:07:45;17.40;99.90
20891;DHT22;10605;52.968;8.844;2023-08-20T22:10:11;17.50;99.90
20891;DHT22;10605;52.968;8.844;2023-08-20T22:12:38;17.50;99.90
20891;DHT22;10605;52.968;8.844;2023-08-20T22:15:08;17.40;99.90
20891;DHT22;10605;52.968;8.844;2023-08-20T22:17:34;17.40;99.90
20891;DHT22;10605;52.968;8.844;2023-08-20T22:20:03;17.40;99.90
20891;DHT22;10605;52.968;8.844;2023-08-20T22:22:34;17.30;99.90
20891;DHT22;10605;52.968;8.844;2023-08-20T22:25:00;17.30;99.90
20891;DHT22;10605;52.968;8.844;2023-08-20T22:27:26;17.30;99.90
20891;DHT22;10605;52.968;8.844;2023-08-20T22:29:52;17.20;99.90
20891;DHT22;10605;52.968;8.844;2023-08-20T22:32:18;17.20;99.90
20891;DHT22;10605;52.968;8.844;2023-08-20T22:34:43;17.10;99.90
20891;DHT22;10605;52.968;8.844;2023-08-20T22:37:09;17.10;99.90
20891;DHT22;10605;52.968;8.844;2023-08-20T22:39:34;17.00;99.90
20891;DHT22;10605;52.968;8.844;2023-08-20T22:42:00;16.90;99.90
20891;DHT22;10605;52.968;8.844;2023-08-20T22:44:26;16.90;99.90
20891;DHT22;10605;52.968;8.844;2023-08-20T22:46:53;16.90;99.90
20891;DHT22;10605;52.968;8.844;2023-08-20T22:49:19;16.80;99.90
20891;DHT22;10605;52.968;8.844;2023-08-20T22:51:44;16.80;99.90
20891;DHT22;10605;52.968;8.844;2023-08-20T22:54:10;16.70;99.90
20891;DHT22;10605;52.968;8.844;2023-08-20T22:56:35;16.60;99.90
20891;DHT22;10605;52.968;8.844;2023-08-20T22:59:01;16.70;99.90
20891;DHT22;10605;52.968;8.844;2023-08-20T23:01:27;16.60;99.90
20891;DHT22;10605;52.968;8.844;2023-08-20T23:03:52;16.60;99.90
20891;DHT22;10605;52.968;8.844;2023-08-20T23:06:18;16.60;99.90
20891;DHT22;10605;52.968;8.844;2023-08-20T23:08:44;16.50;99.90
20891;DHT22;10605;52.968;8.844;2023-08-20T23:11:09;16.50;99.90
20891;DHT22;10605;52.968;8.844;2023-08-20T23:13:35;16.40;99.90
20891;DHT22;10605;52.968;8.844;2023-08-20T23:16:01;16.30;99.90
20891;DHT22;10605;52.968;8.844;2023-08-20T23:18:26;16.40;99.90
20891;DHT22;10605;52.968;8.844;2023-08-20T23:21:00;16.40;99.90
20891;DHT22;10605;52.968;8.844;2023-08-20T23:23:26;16.30;99.90
20891;DHT22;10605;52.968;8.844;2023-08-20T23:25:52;16.30;99.90
20891;DHT22;10605;52.968;8.844;2023-08-20T23:28:18;16.20;99.90
20891;DHT22;10605;52.968;8.844;2023-08-20T23:30:46;16.10;99.90
20891;DHT22;10605;52.968;8.844;2023-08-20T23:33:12;16.00;99.90
20891;DHT22;10605;52.968;8.844;2023-08-20T23:35:41;15.90;99.90
20891;DHT22;10605;52.968;8.844;2023-08-20T23:38:08;15.90;99.90
20891;DHT22;10605;52.968;8.844;2023-08-20T23:40:35;16.00;99.90
20891;DHT22;10605;52.968;8.844;2023-08-20T23:43:01;16.00;99.90
20891;DHT22;10605;52.968;8.844;2023-08-20T23:45:27;16.00;99.90
20891;DHT22;10605;52.968;8.844;2023-08-20T23:47:53;16.00;99.90
20891;DHT22;10605;52.968;8.844;2023-08-20T23:50:18;16.00;99.90
20891;DHT22;10605;52.968;8.844;2023-08-20T23:52:44;16.00;99.90
20891;DHT22;10605;52.968;8.844;2023-08-20T23:55:10;16.00;99.90
20891;DHT22;10605;52.968;8.844;2023-08-20T23:57:36;16.00;99.90
